Flight Track Log - Related Links

Times and Time Zones

All times are in EST time to prevent confusion due to time zone crossing. See the AAL289 flight status page for this flight to view local times or setup timezone preferences in your user account.

Time Position Orientation Groundspeed Altitude Reporting Facility
EST Latitude Longitude Course Direction KTS MPH feet Rate Location/Type
Sun 11:52:51 AM 41.9698 -87.9406 285° West 181 208 2,200  Level FlightAware ADS-B
Sun 11:53:03 AM 41.9749 -87.9533 298° West 179 206 2,900 2,667 Climbing FlightAware ADS-B (CYQU)
Sun 11:53:18 AM 41.9837 -87.9633 320° Northwest 186 214 3,400 1,404 Climbing FlightAware ADS-B (CYQU)
Sun 11:53:50 AM 42.0087 -87.9863 326° Northwest 214 246 4,000 1,448 Climbing FlightAware ADS-B
Sun 11:54:16 AM 42.0286 -88.0057 324° Northwest 225 259 4,800 1,610 Climbing FlightAware ADS-B (CYQU)
Sun 11:54:31 AM 42.0428 -88.0194 324° Northwest 238 274 5,100 686 Climbing FlightAware ADS-B
Sun 11:54:51 AM 42.0620 -88.0360 327° Northwest 242 278 5,200 150 Climbing FlightAware ADS-B (CYQU)
Sun 11:55:11 AM 42.0829 -88.0460 340° North 248 285 5,200  Level FlightAware ADS-B
Sun 11:55:31 AM 42.1036 -88.0524 347° North 249 287 5,200  Level FlightAware ADS-B
Sun 11:55:51 AM 42.1280 -88.0594 348° North 249 287 5,200  Level FlightAware ADS-B
Sun 11:56:13 AM 42.1519 -88.0634 353° North 254 292 5,200  Level FlightAware ADS-B (CYQU)
Sun 11:56:41 AM 42.1823 -88.0652 358° North 256 295 5,200  Level FlightAware ADS-B
Sun 11:56:59 AM 42.2047 -88.0658 359° North 256 295 5,200 1,350 Level FlightAware ADS-B (CYQU)
Sun 11:57:21 AM 42.2342 -88.0668 359° North 253 291 6,100 2,571 Climbing FlightAware ADS-B
Sun 11:57:41 AM 42.2535 -88.0676 358° North 249 287 7,000 2,400 Climbing FlightAware ADS-B
Sun 11:58:01 AM 42.2807 -88.0694 357° North 253 291 7,700 2,250 Climbing FlightAware ADS-B
Sun 11:58:21 AM 42.3012 -88.0716 355° North 253 291 8,500 2,250 Climbing FlightAware ADS-B
Sun 11:58:49 AM 42.3363 -88.0756 355° North 257 296 9,500 2,063 Climbing FlightAware ADS-B (CYQU)
Sun 11:59:25 AM 42.3663 -88.0788 355° North 266 306 10,700 1,364 Climbing FlightAware ADS-B (CYQU)
Sun 11:59:55 AM 42.4195 -88.0859 354° North 299 344 11,000 774 Climbing FlightAware ADS-B
Sun 12:00:27 PM 42.4661 -88.0933 353° North 331 381 11,500 1,091 Climbing FlightAware ADS-B
Sun 12:01:01 PM 42.5169 -88.1012 353° North 339 390 12,200 1,781 Climbing FlightAware ADS-B
Sun 12:01:31 PM 42.5625 -88.1081 354° North 342 394 13,400 2,280 Climbing FlightAware ADS-B
Sun 12:01:51 PM 42.5913 -88.1091 358° North 350 403 14,100 1,950 Climbing FlightAware ADS-B
Sun 12:02:11 PM 42.6288 -88.1002 10° North 365 420 14,700 1,692 Climbing FlightAware ADS-B
Sun 12:02:30 PM 42.6600 -88.0833 22° Northeast 382 440 15,200 1,800 Climbing FlightAware ADS-B (CYQU)
Sun 12:03:31 PM 42.7465 -87.9951 37° Northeast 402 463 17,100 1,960 Climbing FlightAware ADS-B
Sun 12:04:11 PM 42.8061 -87.9339 37° Northeast 402 463 18,500 2,083 Climbing FlightAware ADS-B
Sun 12:04:43 PM 42.8553 -87.8854 36° Northeast 407 468 19,600 1,613 Climbing FlightAware ADS-B
Sun 12:06:10 PM 42.9927 -87.7546 35° Northeast 422 486 21,700 1,417 Climbing FlightAware ADS-B
Sun 12:06:50 PM 43.0568 -87.6952 34° Northeast 432 497 22,600 1,333 Climbing FlightAware ADS-B
Sun 12:07:40 PM 43.1416 -87.6156 34° Northeast 441 507 23,700 1,267 Climbing FlightAware ADS-B
Sun 12:08:20 PM 43.2096 -87.5513 35° Northeast 449 517 24,500 1,268 Climbing FlightAware ADS-B
Sun 12:08:51 PM 43.2593 -87.5043 35° Northeast 453 521 25,200 1,352 Climbing FlightAware ADS-B
Sun 12:09:31 PM 43.3310 -87.4364 35° Northeast 455 524 26,100 1,125 Climbing FlightAware ADS-B
Sun 12:10:11 PM 43.3987 -87.3722 35° Northeast 461 531 26,700 987 Climbing FlightAware ADS-B
Sun 12:10:50 PM 43.4685 -87.3059 35° Northeast 466 536 27,400 975 Climbing FlightAware ADS-B
Sun 12:11:31 PM 43.5420 -87.2356 35° Northeast 471 542 28,000 889 Climbing FlightAware ADS-B
Sun 12:12:11 PM 43.6142 -87.1665 35° Northeast 475 547 28,600 911 Climbing FlightAware ADS-B
Sun 12:12:50 PM 43.6860 -87.0975 35° Northeast 479 551 29,200 911 Climbing FlightAware ADS-B
Sun 12:13:30 PM 43.7501 -87.0359 35° Northeast 482 555 29,800 900 Climbing FlightAware ADS-B
Sun 12:14:10 PM 43.8322 -86.9565 35° Northeast 484 557 30,400 825 Climbing FlightAware ADS-B
Sun 12:14:50 PM 43.9009 -86.8899 35° Northeast 487 560 30,900 404 Climbing FlightAware ADS-B
Sun 12:15:39 PM 43.9942 -86.7990 35° Northeast 486 559 31,000 43 Climbing FlightAware ADS-B
Sun 12:17:10 PM 44.1602 -86.6368 35° Northeast 482 555 31,000  Level FlightAware ADS-B
Sun 12:17:54 PM 44.2412 -86.5574 35° Northeast 482 555 31,000 -60 Level FlightAware ADS-B
Sun 12:18:50 PM 44.3322 -86.4678 35° Northeast 482 555 30,900  Descending Minneapolis Center
Sun 12:19:51 PM 44.4411 -86.3597 35° Northeast 482 555 31,000 49 Climbing Minneapolis Center
Sun 12:20:52 PM 44.5497 -86.2517 35° Northeast 483 556 31,000  Level Minneapolis Center
Sun 12:21:54 PM 44.6547 -86.1486 35° Northeast 482 555 31,000  Level Minneapolis Center
Sun 12:22:55 PM 44.7633 -86.0403 35° Northeast 479 551 31,000  Level Minneapolis Center
Sun 12:23:56 PM 44.8711 -85.9311 36° Northeast 479 551 31,000  Level Minneapolis Center
Sun 12:24:58 PM 45.0011 -85.7989 36° Northeast 480 552 31,000  Level Minneapolis Center
Sun 12:25:59 PM 45.1097 -85.6903 35° Northeast 480 552 31,000 -49 Level Minneapolis Center
Sun 12:27:00 PM 45.2108 -85.5847 36° Northeast 480 552 30,900 -49 Descending Minneapolis Center
Sun 12:28:02 PM 45.3200 -85.4725 36° Northeast 484 557 30,900 49 Level Minneapolis Center
Sun 12:29:03 PM 45.4294 -85.3606 36° Northeast 486 559 31,000 49 Climbing Minneapolis Center
Sun 12:30:05 PM 45.5611 -85.2236 36° Northeast 488 562 31,000  Level Minneapolis Center
Sun 12:31:06 PM 45.6694 -85.1117 36° Northeast 484 557 31,000  Level Minneapolis Center
Sun 12:32:07 PM 45.7797 -84.9989 35° Northeast 485 558 31,000 -49 Level Minneapolis Center
Sun 12:33:09 PM 45.8881 -84.8825 37° Northeast 487 560 30,900  Descending Minneapolis Center
Sun 12:34:10 PM 45.9958 -84.7653 37° Northeast 487 560 31,000 49 Climbing Minneapolis Center
Sun 12:35:12 PM 46.1056 -84.6511 36° Northeast 486 559 31,000  Level Minneapolis Center
Sun 12:36:12 PM 46.2167 -84.5167 40° Northeast 490 564 31,000  Level Toronto Center
Sun 12:37:12 PM 46.3167 -84.3833 43° Northeast 490 564 31,000  Level Toronto Center
Sun 12:38:12 PM 46.4333 -84.3000 26° Northeast 480 552 31,000  Level Toronto Center
Sun 12:39:12 PM 46.5500 -84.2333 21° North 470 541 31,000  Level Toronto Center
Sun 12:40:12 PM 46.6833 -84.1500 23° Northeast 470 541 31,000  Level Toronto Center
Sun 12:41:12 PM 46.8000 -84.0667 26° Northeast 480 552 31,000  Level Toronto Center
Sun 12:42:12 PM 46.9167 -83.9833 26° Northeast 470 541 31,000  Level Toronto Center
Sun 12:43:12 PM 47.0167 -83.8833 34° Northeast 470 541 31,000  Level Toronto Center
Sun 12:44:12 PM 47.1500 -83.8000 23° Northeast 470 541 31,000  Level Toronto Center
Sun 12:45:12 PM 47.2667 -83.7167 26° Northeast 470 541 31,000  Level Toronto Center
Sun 12:46:12 PM 47.3833 -83.6167 30° Northeast 470 541 31,000  Level Toronto Center
Sun 12:47:12 PM 47.5000 -83.5500 21° North 470 541 31,000  Level Toronto Center
Sun 12:48:12 PM 47.6167 -83.4667 26° Northeast 470 541 31,000  Level Toronto Center
Sun 12:49:12 PM 47.7333 -83.3667 30° Northeast 470 541 31,000  Level Toronto Center
Sun 12:50:12 PM 47.8500 -83.3000 21° North 460 529 31,000  Level Toronto Center
Sun 12:51:12 PM 47.9667 -83.2167 26° Northeast 470 541 31,000 450 Level Toronto Center
Sun 12:52:12 PM 48.0833 -83.1167 30° Northeast 470 541 31,900 950 Climbing Toronto Center
Sun 12:53:12 PM 48.2000 -83.0333 25° Northeast 460 529 32,900 550 Climbing Toronto Center
Sun 12:54:12 PM 48.3167 -82.9667 21° North 460 529 33,000 50 Climbing Toronto Center
Sun 12:55:12 PM 48.4167 -82.8667 34° Northeast 460 529 33,000  Level Toronto Center
Sun 12:56:12 PM 48.5333 -82.7833 25° Northeast 450 518 33,000  Level Toronto Center
Sun 12:57:12 PM 48.6500 -82.7000 25° Northeast 450 518 33,000  Level Toronto Center
Sun 12:57:48 PM 48.7167 -82.7000 360° North 440 506 33,000  Level Montreal Center
Sun 12:58:48 PM 48.8167 -82.6167 29° Northeast 440 506 33,000  Level Montreal Center
Sun 12:59:48 PM 48.9333 -82.5167 29° Northeast 440 506 33,000  Level Montreal Center
Sun 01:00:48 PM 49.0500 -82.4333 25° Northeast 440 506 33,000  Level Montreal Center
Sun 01:01:48 PM 49.1500 -82.3500 29° Northeast 450 518 33,000  Level Montreal Center
Sun 01:02:48 PM 49.2833 -82.2667 22° Northeast 450 518 33,000  Level Montreal Center
Sun 01:03:48 PM 49.3833 -82.1667 33° Northeast 440 506 33,000  Level Montreal Center
Sun 01:04:48 PM 49.4833 -82.0833 28° Northeast 440 506 33,000  Level Montreal Center
Sun 01:05:48 PM 49.6000 -81.9833 29° Northeast 440 506 33,000  Level Montreal Center
Sun 01:06:48 PM 49.7167 -81.9000 25° Northeast 440 506 33,000  Level Montreal Center
Sun 01:07:48 PM 49.8167 -81.8333 23° Northeast 450 518 33,000  Level Montreal Center
Sun 01:08:48 PM 49.9333 -81.7500 25° Northeast 440 506 33,000  Level Montreal Center
Sun 01:09:48 PM 50.0500 -81.6500 29° Northeast 450 518 33,000  Level Montreal Center
Sun 01:10:48 PM 50.1500 -81.5667 28° Northeast 450 518 33,000  Level Montreal Center
Sun 01:11:48 PM 50.2833 -81.4667 26° Northeast 450 518 33,000  Level Montreal Center
Sun 01:12:48 PM 50.3833 -81.3833 28° Northeast 450 518 33,000  Level Montreal Center
Sun 01:13:48 PM 50.4833 -81.2833 32° Northeast 460 529 33,000  Level Montreal Center
Sun 01:14:48 PM 50.6167 -81.2000 22° Northeast 460 529 33,000  Level Montreal Center
Sun 01:15:48 PM 50.7167 -81.1000 32° Northeast 460 529 33,000  Level Montreal Center
Sun 01:16:48 PM 50.8333 -81.0000 28° Northeast 460 529 33,000  Level Montreal Center
Sun 01:17:48 PM 50.9500 -80.9167 24° Northeast 460 529 33,000  Level Montreal Center
Sun 01:18:48 PM 51.0667 -80.8167 28° Northeast 460 529 33,000  Level Montreal Center
Sun 01:19:48 PM 51.1667 -80.7167 32° Northeast 460 529 33,000  Level Montreal Center
Sun 01:20:48 PM 51.3000 -80.6167 25° Northeast 470 541 33,000  Level Montreal Center
Sun 01:21:48 PM 51.4167 -80.5333 24° Northeast 460 529 33,000  Level Montreal Center
Sun 01:22:48 PM 51.5333 -80.4667 20° North 460 529 33,000  Level Montreal Center
Sun 01:23:48 PM 51.6500 -80.3833 24° Northeast 460 529 33,000  Level Montreal Center
Sun 01:24:48 PM 51.7833 -80.3000 21° North 460 529 33,000  Level Montreal Center
Sun 01:25:48 PM 51.9000 -80.2167 24° Northeast 470 541 33,000  Level Montreal Center
Sun 01:26:48 PM 52.0167 -80.1500 19° North 470 541 33,000  Level Montreal Center
Sun 01:27:48 PM 52.1500 -80.0500 25° Northeast 470 541 33,000  Level Montreal Center
Sun 01:28:48 PM 52.2667 -79.9833 19° North 470 541 33,000  Level Montreal Center
Sun 01:29:48 PM 52.4000 -79.8833 25° Northeast 470 541 33,000  Level Montreal Center
Sun 01:30:48 PM 52.5000 -79.8167 22° Northeast 480 552 33,000  Level Montreal Center
Sun 01:31:48 PM 52.6333 -79.7167 24° Northeast 480 552 33,000  Level Montreal Center
Sun 01:32:48 PM 52.7667 -79.6333 21° North 480 552 33,000  Level Montreal Center
Sun 01:33:48 PM 52.8833 -79.5333 27° Northeast 480 552 33,000  Level Montreal Center
Sun 01:34:48 PM 53.0000 -79.4667 19° North 480 552 33,000  Level Montreal Center
Sun 01:35:48 PM 53.1333 -79.3667 24° Northeast 480 552 33,000  Level Montreal Center
Sun 01:36:48 PM 53.2667 -79.2833 20° North 490 564 33,000  Level Montreal Center
Sun 01:37:48 PM 53.3833 -79.1833 27° Northeast 490 564 33,000  Level Montreal Center
Sun 01:38:48 PM 53.5000 -79.1000 23° Northeast 490 564 33,000  Level Montreal Center
Sun 01:39:48 PM 53.6333 -79.0000 24° Northeast 490 564 33,000  Level Montreal Center
Sun 01:40:48 PM 53.7833 -78.9333 15° North 510 587 33,000  Level Montreal Center
Sun 01:41:49 PM 53.8833 -78.8500 26° Northeast 570 656 33,000  Level Montreal Center
Sun 01:42:49 PM 54.0000 -78.7500 27° Northeast 490 564 33,000  Level Montreal Center
Sun 01:43:49 PM 54.1333 -78.6333 27° Northeast 490 564 33,000  Level Montreal Center
Sun 01:44:49 PM 54.2500 -78.5500 23° Northeast 490 564 33,000  Level Montreal Center
Sun 01:45:49 PM 54.3833 -78.4833 16° North 490 564 33,000  Level Montreal Center
Sun 01:46:49 PM 54.5000 -78.3667 30° Northeast 490 564 33,000  Level Montreal Center
Sun 01:47:49 PM 54.6333 -78.2833 20° North 480 552 33,000  Level Montreal Center
Sun 01:48:49 PM 54.7500 -78.1833 26° Northeast 490 564 33,000  Level Montreal Center
Sun 01:49:49 PM 54.8667 -78.1000 22° Northeast 490 564 33,000  Level Montreal Center
Sun 01:50:49 PM 54.9833 -77.9833 30° Northeast 490 564 33,000  Level Montreal Center
Sun 01:51:49 PM 55.1333 -77.9000 18° North 490 564 33,000  Level Montreal Center
Sun 01:52:49 PM 55.2667 -77.8833 North 480 552 33,000  Level Montreal Center
Sun 01:53:49 PM 55.4000 -77.9167 352° North 480 552 33,000  Level Montreal Center
Sun 01:54:49 PM 55.5333 -77.9167 360° North 480 552 33,000  Level Montreal Center
Sun 01:55:49 PM 55.6667 -77.9333 356° North 480 552 33,000  Level Montreal Center
Sun 01:56:49 PM 55.8000 -77.9000 North 480 552 33,000  Level Montreal Center
Sun 01:57:49 PM 55.9333 -77.9167 356° North 480 552 33,000  Level Montreal Center
Sun 01:58:49 PM 56.0667 -77.9167 360° North 480 552 33,000  Level Montreal Center
Sun 01:59:49 PM 56.2000 -77.9333 356° North 480 552 33,000  Level Montreal Center
Sun 02:00:49 PM 56.3333 -77.9000 North 480 552 33,000  Level Montreal Center
Sun 02:01:49 PM 56.4667 -77.9167 356° North 490 564 33,000  Level Montreal Center
Sun 02:02:49 PM 56.6000 -77.9167 360° North 490 564 33,000  Level Montreal Center
Sun 02:03:49 PM 56.7500 -77.9167 360° North 490 564 33,000  Level Montreal Center
Sun 02:04:49 PM 56.8833 -77.9000 North 490 564 33,000  Level Montreal Center
Sun 02:05:49 PM 57.0333 -77.9000 360° North 490 564 33,000  Level Montreal Center
Sun 02:06:49 PM 57.1500 -77.9167 356° North 490 564 33,000  Level Montreal Center
Sun 02:07:49 PM 57.3000 -77.9167 360° North 490 564 33,000  Level Montreal Center
Sun 02:08:49 PM 57.4333 -77.9333 356° North 490 564 33,000  Level Montreal Center
Sun 02:10:03 PM 57.5667 -77.7833 31° Northeast 490 564 33,000  Level Edmonton Center
Sun 02:10:49 PM 57.7000 -77.9167 332° Northwest 490 564 33,000  Level Montreal Center
Sun 02:11:49 PM 57.8500 -77.9167 360° North 490 564 33,000  Level Montreal Center
Sun 02:12:49 PM 57.9667 -77.9333 356° North 490 564 33,000  Level Montreal Center
Sun 02:13:49 PM 58.1167 -77.9000 North 490 564 33,000  Level Montreal Center
Sun 02:14:49 PM 58.2500 -77.9167 356° North 490 564 33,000  Level Montreal Center
Sun 02:15:49 PM 58.3833 -77.9167 360° North 490 564 33,000  Level Montreal Center
Sun 02:16:49 PM 58.5167 -77.9167 360° North 490 564 33,000  Level Montreal Center
Sun 02:17:49 PM 58.6667 -77.9000 North 490 564 33,000  Level Montreal Center
Sun 02:18:49 PM 58.8000 -77.9000 360° North 490 564 33,000  Level Montreal Center
Sun 02:19:49 PM 58.9500 -77.9167 357° North 490 564 33,000  Level Montreal Center
Sun 02:20:49 PM 59.0833 -77.9167 360° North 490 564 33,000  Level Montreal Center
Sun 02:21:49 PM 59.2167 -77.9000 North 490 564 33,000  Level Montreal Center
Sun 02:22:49 PM 59.3500 -77.9000 360° North 490 564 33,000  Level Montreal Center
Sun 02:23:49 PM 59.4833 -77.9167 356° North 490 564 33,000  Level Montreal Center
Sun 02:24:49 PM 59.6167 -77.9167 360° North 490 564 33,000  Level Montreal Center
Sun 02:25:49 PM 59.7500 -77.8833 North 490 564 33,000  Level Montreal Center
Sun 02:26:49 PM 59.8833 -77.9000 356° North 490 564 33,000  Level Montreal Center
Sun 02:27:49 PM 60.0333 -77.9000 360° North 490 564 33,000  Level Montreal Center
Sun 02:28:49 PM 60.1667 -77.9167 356° North 480 552 33,000  Level Montreal Center
Sun 02:29:49 PM 60.3000 -77.8833 North 480 552 33,000  Level Montreal Center
Sun 02:30:49 PM 60.4333 -77.9000 356° North 480 552 33,000  Level Montreal Center
Sun 02:31:49 PM 60.5667 -77.9000 360° North 480 552 33,000  Level Montreal Center
Sun 02:32:49 PM 60.7000 -77.9167 356° North 490 564 33,000  Level Montreal Center
Sun 02:33:49 PM 60.8333 -77.9167 360° North 490 564 33,000  Level Montreal Center
Sun 02:35:03 PM 60.9667 -77.7500 31° Northeast 480 552 33,000  Level Edmonton Center
Sun 02:36:03 PM 61.1167 -77.7333 North 490 564 33,000  Level Edmonton Center
Sun 02:37:03 PM 61.2500 -77.7333 360° North 480 552 33,000  Level Edmonton Center
Sun 02:37:49 PM 61.3833 -77.9167 327° Northwest 480 552 33,000  Level Montreal Center
Sun 02:38:49 PM 61.5167 -77.8833 North 480 552 33,000  Level Montreal Center
Sun 02:39:49 PM 61.6500 -77.9000 357° North 490 564 33,000  Level Montreal Center
Sun 02:40:49 PM 61.7833 -77.9000 360° North 480 552 33,000  Level Montreal Center
Sun 02:41:49 PM 61.9333 -77.9167 357° North 480 552 33,000  Level Montreal Center
Sun 02:42:49 PM 62.0667 -77.8833 North 480 552 33,000  Level Montreal Center
Sun 02:44:03 PM 62.2000 -77.7333 28° Northeast 480 552 33,000  Level Edmonton Center
Sun 02:45:03 PM 62.3167 -77.7333 360° North 480 552 33,000  Level Edmonton Center
Sun 02:46:03 PM 62.4500 -77.7333 360° North 480 552 33,000  Level Edmonton Center
Sun 02:47:03 PM 62.5833 -77.7000 North 480 552 33,000  Level Edmonton Center
Sun 02:47:49 PM 62.7333 -77.8833 331° Northwest 480 552 33,000  Level Montreal Center
Sun 02:48:49 PM 62.8667 -77.9000 357° North 480 552 33,000  Level Montreal Center
Sun 02:49:49 PM 63.0000 -77.9000 360° North 480 552 33,000  Level Montreal Center
Sun 02:51:03 PM 63.1167 -77.7167 35° Northeast 480 552 33,000  Level Edmonton Center
Sun 02:52:03 PM 63.2500 -77.7333 357° North 480 552 33,000  Level Edmonton Center
Sun 02:53:03 PM 63.4000 -77.7167 North 480 552 33,000  Level Edmonton Center
Sun 02:54:03 PM 63.5333 -77.7167 360° North 480 552 33,000  Level Edmonton Center
Sun 02:55:03 PM 63.6667 -77.7000 North 480 552 33,000  Level Edmonton Center
Sun 02:56:03 PM 63.8000 -77.7167 357° North 480 552 33,000  Level Edmonton Center
Sun 02:57:03 PM 63.9333 -77.7167 360° North 480 552 33,000  Level Edmonton Center
Sun 02:58:03 PM 64.0667 -77.7167 360° North 480 552 33,000  Level Edmonton Center
Sun 02:59:03 PM 64.2000 -77.7000 North 480 552 33,000  Level Edmonton Center
Sun 03:00:03 PM 64.3333 -77.6833 North 480 552 33,000  Level Edmonton Center
Sun 03:01:03 PM 64.4667 -77.7167 354° North 480 552 33,000  Level Edmonton Center
Sun 03:02:04 PM 64.6000 -77.7000 North 480 552 33,000  Level Edmonton Center
Sun 03:03:04 PM 64.7333 -77.6833 North 480 552 33,000  Level Edmonton Center
Sun 03:04:04 PM 64.8667 -77.6833 360° North 480 552 33,000  Level Edmonton Center
Sun 03:05:04 PM 65.0000 -77.7167 354° North 480 552 33,000  Level Edmonton Center
Sun 03:06:04 PM 65.1333 -77.7000 North 480 552 33,000  Level Edmonton Center
Sun 03:07:04 PM 65.2667 -77.6833 North 480 552 33,000  Level Edmonton Center
Sun 03:08:04 PM 65.4000 -77.6833 360° North 480 552 33,000  Level Edmonton Center
Sun 03:09:04 PM 65.5500 -77.7000 357° North 480 552 33,000  Level Edmonton Center
Sun 03:10:04 PM 65.6667 -77.6833 North 480 552 33,000  Level Edmonton Center
Sun 03:11:04 PM 65.8000 -77.6833 360° North 480 552 33,000  Level Edmonton Center
Sun 03:12:04 PM 65.9500 -77.7000 357° North 480 552 33,000  Level Edmonton Center
Sun 03:13:04 PM 66.0833 -77.6833 North 480 552 33,000  Level Edmonton Center
Sun 03:14:04 PM 66.2167 -77.6667 North 480 552 33,000  Level Edmonton Center
Sun 03:15:04 PM 66.3500 -77.6500 North 480 552 33,000  Level Edmonton Center
Sun 03:16:04 PM 66.4833 -77.6833 354° North 480 552 33,000  Level Edmonton Center
Sun 03:17:04 PM 66.6167 -77.6667 North 480 552 33,000  Level Edmonton Center
Sun 03:18:04 PM 66.7500 -77.6500 North 480 552 33,000  Level Edmonton Center
Sun 03:19:04 PM 66.8833 -77.6833 354° North 480 552 33,000  Level Edmonton Center
Sun 03:20:04 PM 67.0333 -77.6667 North 480 552 33,000  Level Edmonton Center
Sun 03:21:04 PM 67.1500 -77.6500 North 480 552 33,000  Level Edmonton Center
Sun 03:22:04 PM 67.2833 -77.6833 354° North 480 552 33,000  Level Edmonton Center
Sun 03:23:04 PM 67.4333 -77.6500 North 480 552 33,000  Level Edmonton Center
Sun 03:24:04 PM 67.5500 -77.6500 360° North 480 552 33,000  Level Edmonton Center
Sun 03:25:04 PM 67.6833 -77.6333 North 480 552 33,000  Level Edmonton Center
Sun 03:26:04 PM 67.8167 -77.6667 355° North 480 552 33,000  Level Edmonton Center
Sun 03:27:04 PM 67.9667 -77.6500 North 480 552 33,000  Level Edmonton Center
Sun 03:28:04 PM 68.0833 -77.6333 North 480 552 33,000  Level Edmonton Center
Sun 03:29:04 PM 68.2167 -77.6667 355° North 480 552 33,000  Level Edmonton Center
Sun 03:30:04 PM 68.3500 -77.6500 North 480 552 33,000  Level Edmonton Center
Sun 03:31:04 PM 68.4833 -77.6500 360° North 480 552 33,000  Level Edmonton Center
Sun 03:32:04 PM 68.6167 -77.6167 North 480 552 33,000  Level Edmonton Center
Sun 03:33:04 PM 68.7500 -77.6500 355° North 480 552 33,000  Level Edmonton Center
Sun 03:34:04 PM 68.8833 -77.6333 North 480 552 33,000  Level Edmonton Center
Sun 03:35:04 PM 69.0167 -77.6167 North 490 564 33,000  Level Edmonton Center
Sun 03:36:04 PM 69.1500 -77.6333 357° North 490 564 33,000  Level Edmonton Center
Sun 03:37:04 PM 69.2833 -77.6333 360° North 490 564 33,000  Level Edmonton Center
Sun 03:38:04 PM 69.4333 -77.6500 358° North 490 564 33,000  Level Edmonton Center
Sun 03:39:04 PM 69.5667 -77.6333 North 500 575 33,000  Level Edmonton Center
Sun 03:40:04 PM 69.7000 -77.6000 North 500 575 33,000  Level Edmonton Center
Sun 03:41:04 PM 69.8333 -77.6333 355° North 500 575 33,000  Level Edmonton Center
Sun 03:42:04 PM 69.9833 -77.6000 North 500 575 33,000  Level Edmonton Center
Sun 03:43:04 PM 70.1167 -77.5667 North 500 575 33,000  Level Edmonton Center
Sun 03:44:04 PM 70.2500 -77.5500 North 500 575 33,000  Level Edmonton Center
Sun 03:45:04 PM 70.3833 -77.5167 North 490 564 33,000  Level Edmonton Center
Sun 03:46:04 PM 70.5333 -77.4833 North 490 564 33,000  Level Edmonton Center
Sun 03:47:04 PM 70.6500 -77.4833 360° North 490 564 33,000  Level Edmonton Center
Sun 03:48:04 PM 70.8000 -77.4333 North 490 564 33,000  Level Edmonton Center
Sun 03:49:04 PM 70.9333 -77.3667 North 490 564 33,000  Level Edmonton Center
Sun 03:50:04 PM 71.0667 -77.3500 North 480 552 33,000  Level Edmonton Center
Sun 03:51:04 PM 71.2000 -77.3000 North 490 564 33,000  Level Edmonton Center
Sun 03:52:04 PM 71.3500 -77.2667 North 490 564 33,000  Level Edmonton Center
Sun 03:53:04 PM 71.4667 -77.2500 North 480 552 33,000  Level Edmonton Center
Sun 03:54:04 PM 71.6167 -77.2167 North 480 552 33,000  Level Edmonton Center
Sun 03:55:04 PM 71.7333 -77.1500 10° North 490 564 33,000  Level Edmonton Center
Sun 03:56:04 PM 71.8667 -77.1167 North 490 564 33,000  Level Edmonton Center
Sun 03:57:04 PM 72.0167 -77.0667 North 490 564 33,000  Level Edmonton Center
Sun 03:58:04 PM 72.1333 -77.0500 North 490 564 33,000  Level Edmonton Center
Sun 04:22:13 PM 75.0000 -76.3333 North 490 564 33,000  Level ETMS Enhanced Traffic Management System
Sun 04:23:00 PM 75.5967 -76.0700 North  Level FlightAware Approximate
Sun 04:24:00 PM 75.7352 -76.0058 North  Level FlightAware Approximate
Sun 04:25:00 PM 75.8736 -75.9404 North  Level FlightAware Approximate
Sun 04:26:00 PM 76.0120 -75.8737 North  Level FlightAware Approximate
Sun 04:27:00 PM 76.1504 -75.8057 North  Level FlightAware Approximate
Sun 04:28:00 PM 76.2192 -75.7714 North 490 564 33,000  Level FlightAware Transoceanic
Sun 04:29:00 PM 76.3546 -75.7029 North 490 564 33,000  Level FlightAware Transoceanic
Sun 04:30:00 PM 76.4899 -75.6331 North 490 564 33,000  Level FlightAware Transoceanic
Sun 04:31:00 PM 76.6253 -75.5618 North 490 564 33,000  Level FlightAware Transoceanic
Sun 04:32:00 PM 76.7606 -75.4892 North 490 564 33,000  Level FlightAware Transoceanic
Sun 04:33:00 PM 76.8959 -75.4150 North 490 564 33,000  Level FlightAware Transoceanic
Sun 04:34:00 PM 77.0312 -75.3394 North 490 564 33,000  Level FlightAware Transoceanic
Sun 04:35:00 PM 77.1664 -75.2622 North 490 564 33,000  Level FlightAware Transoceanic
Sun 04:36:00 PM 77.3016 -75.1833 North 490 564 33,000  Level FlightAware Transoceanic
Sun 04:37:00 PM 77.4369 -75.1028 North 490 564 33,000  Level FlightAware Transoceanic
Sun 04:38:00 PM 77.5720 -75.0206 North 490 564 33,000  Level FlightAware Transoceanic
Sun 04:39:00 PM 77.7072 -74.9365 North 490 564 33,000  Level FlightAware Transoceanic
Sun 04:40:00 PM 77.8423 -74.8507 North 490 564 33,000  Level FlightAware Transoceanic
Sun 04:41:00 PM 77.9774 -74.7629 North 490 564 33,000  Level FlightAware Transoceanic
Sun 04:42:00 PM 78.1125 -74.6732 North 490 564 33,000  Level FlightAware Transoceanic
Sun 04:43:00 PM 78.2476 -74.5815 North 490 564 33,000  Level FlightAware Transoceanic
Sun 04:44:00 PM 78.3826 -74.4876 North 490 564 33,000  Level FlightAware Transoceanic
Sun 04:45:00 PM 78.5175 -74.3916 North 490 564 33,000  Level FlightAware Transoceanic
Sun 04:46:00 PM 78.6525 -74.2933 North 490 564 33,000  Level FlightAware Transoceanic
Sun 04:47:00 PM 78.7874 -74.1927 North 490 564 33,000  Level FlightAware Transoceanic
Sun 04:48:00 PM 78.9223 -74.0897 North 490 564 33,000  Level FlightAware Transoceanic
Sun 04:49:00 PM 79.0572 -73.9841 North 490 564 33,000  Level FlightAware Transoceanic
Sun 04:50:00 PM 79.1920 -73.8760 North 490 564 33,000  Level FlightAware Transoceanic
Sun 04:51:00 PM 79.3268 -73.7651 North 490 564 33,000  Level FlightAware Transoceanic
Sun 04:52:00 PM 79.4615 -73.6515 North 490 564 33,000  Level FlightAware Transoceanic
Sun 04:53:00 PM 79.5962 -73.5350 North 490 564 33,000  Level FlightAware Transoceanic
Sun 04:54:00 PM 79.7308 -73.4154 North 490 564 33,000  Level FlightAware Transoceanic
Sun 04:55:00 PM 79.8654 -73.2926 North 490 564 33,000 -24 Level FlightAware Transoceanic
Sun 04:56:00 PM 80.0030 -73.1638 North  Level FlightAware Approximate
Sun 04:57:00 PM 80.0059 -73.1604 10° North  Level FlightAware Approximate
Sun 04:58:00 PM 80.1430 -73.0129 10° North  Level FlightAware Approximate
Sun 04:59:00 PM 80.2799 -72.8614 11° North  Level FlightAware Approximate
Sun 05:00:00 PM 80.4168 -72.7056 11° North  Level FlightAware Approximate
Sun 05:01:00 PM 80.5536 -72.5453 11° North  Level FlightAware Approximate
Sun 05:02:00 PM 80.6904 -72.3803 11° North  Level FlightAware Approximate
Sun 05:03:00 PM 80.8271 -72.2105 11° North  Level FlightAware Approximate
Sun 05:04:00 PM 80.9637 -72.0356 11° North  Level FlightAware Approximate
Sun 05:05:00 PM 81.1002 -71.8553 12° North  Level FlightAware Approximate
Sun 05:06:00 PM 81.2366 -71.6695 12° North  Level FlightAware Approximate
Sun 05:07:00 PM 81.3729 -71.4778 12° North  Level FlightAware Approximate
Sun 05:08:00 PM 81.5091 -71.2801 12° North  Level FlightAware Approximate
Sun 05:09:00 PM 81.6452 -71.0759 12° North  Level FlightAware Approximate
Sun 05:10:00 PM 81.7812 -70.8651 12° North  Level FlightAware Approximate
Sun 05:11:00 PM 81.9172 -70.6472 13° North  Level FlightAware Approximate
Sun 05:12:00 PM 82.0529 -70.4219 13° North  Level FlightAware Approximate
Sun 05:13:00 PM 82.1886 -70.1888 13° North  Level FlightAware Approximate
Sun 05:14:00 PM 82.3241 -69.9475 13° North  Level FlightAware Approximate
Sun 05:15:00 PM 82.4595 -69.6977 14° North  Level FlightAware Approximate
Sun 05:16:00 PM 82.5947 -69.4387 14° North  Level FlightAware Approximate
Sun 05:17:00 PM 82.7298 -69.1702 14° North  Level FlightAware Approximate
Sun 05:18:00 PM 82.8647 -68.8915 14° North  Level FlightAware Approximate
Sun 05:19:00 PM 82.9995 -68.6022 15° North  Level FlightAware Approximate
Sun 05:20:00 PM 83.1340 -68.3016 15° North  Level FlightAware Approximate
Sun 05:21:00 PM 83.2684 -67.9891 15° North  Level FlightAware Approximate
Sun 05:22:00 PM 83.4025 -67.6639 16° North  Level FlightAware Approximate
Sun 05:23:00 PM 83.5365 -67.3252 16° North  Level FlightAware Approximate
Sun 05:24:00 PM 83.6702 -66.9723 16° North  Level FlightAware Approximate
Sun 05:25:00 PM 83.8037 -66.6043 17° North  Level FlightAware Approximate
Sun 05:26:00 PM 83.9369 -66.2201 17° North  Level FlightAware Approximate
Sun 05:27:00 PM 84.0698 -65.8188 17° North  Level FlightAware Approximate
Sun 05:28:00 PM 84.2024 -65.3991 18° North  Level FlightAware Approximate
Sun 05:29:00 PM 84.3346 -64.9599 18° North  Level FlightAware Approximate
Sun 05:30:00 PM 84.4666 -64.4998 19° North  Level FlightAware Approximate
Sun 05:31:00 PM 84.5982 -64.0173 19° North  Level FlightAware Approximate
Sun 05:32:00 PM 84.7293 -63.5108 20° North  Level FlightAware Approximate
Sun 05:33:00 PM 84.8601 -62.9786 20° North  Level FlightAware Approximate
Sun 05:34:00 PM 84.9903 -62.4187 21° North  Level FlightAware Approximate
Sun 05:35:00 PM 85.1201 -61.8291 21° North  Level FlightAware Approximate
Sun 05:36:00 PM 85.2493 -61.2074 22° Northeast  Level FlightAware Approximate
Sun 05:37:00 PM 85.3780 -60.5512 22° Northeast  Level FlightAware Approximate
Sun 05:38:00 PM 85.5060 -59.8585 23° Northeast  Level FlightAware Approximate
Sun 05:39:00 PM 85.6335 -59.1305 23° Northeast  Level FlightAware Approximate
Sun 05:40:00 PM 85.7603 -58.3588 24° Northeast  Level FlightAware Approximate
Sun 05:41:00 PM 85.8863 -57.5399 25° Northeast  Level FlightAware Approximate
Sun 05:42:00 PM 86.0113 -56.6695 26° Northeast  Level FlightAware Approximate
Sun 05:43:00 PM 86.1354 -55.7431 27° Northeast  Level FlightAware Approximate
Sun 05:44:00 PM 86.2585 -54.7556 28° Northeast  Level FlightAware Approximate
Sun 05:45:00 PM 86.3803 -53.7013 29° Northeast  Level FlightAware Approximate
Sun 05:46:00 PM 86.5008 -52.5742 30° Northeast  Level FlightAware Approximate
Sun 05:47:00 PM 86.6199 -51.3672 31° Northeast  Level FlightAware Approximate
Sun 05:48:00 PM 86.7374 -50.0728 32° Northeast  Level FlightAware Approximate
Sun 05:49:00 PM 86.8531 -48.6826 33° Northeast  Level FlightAware Approximate
Sun 05:50:00 PM 86.9668 -47.1873 35° Northeast  Level FlightAware Approximate
Sun 05:51:00 PM 87.0782 -45.5769 36° Northeast  Level FlightAware Approximate
Sun 05:52:00 PM 87.1872 -43.8403 38° Northeast  Level FlightAware Approximate
Sun 05:53:00 PM 87.2935 -41.9658 39° Northeast  Level FlightAware Approximate
Sun 05:54:00 PM 87.3965 -39.9405 41° Northeast  Level FlightAware Approximate
Sun 05:55:00 PM 87.4961 -37.7514 43° Northeast  Level FlightAware Approximate
Sun 05:56:00 PM 87.5917 -35.3849 46° Northeast  Level FlightAware Approximate
Sun 05:57:00 PM 87.6829 -32.8276 48° Northeast  Level FlightAware Approximate
Sun 05:58:00 PM 87.7691 -30.0669 50° Northeast  Level FlightAware Approximate
Sun 05:59:00 PM 87.8497 -27.0920 53° Northeast  Level FlightAware Approximate
Sun 06:00:00 PM 87.9241 -23.8948 56° Northeast  Level FlightAware Approximate
Sun 06:01:00 PM 87.9916 -20.4717 59° Northeast  Level FlightAware Approximate
Sun 06:02:00 PM 88.0726 -17.1783 52° Northeast  Level FlightAware Approximate
Sun 06:03:00 PM 88.1500 -13.6607 55° Northeast  Level FlightAware Approximate
Sun 06:04:00 PM 88.2198 -9.8517 58° Northeast  Level FlightAware Approximate
Sun 06:05:00 PM 88.2812 -5.7516 62° Northeast  Level FlightAware Approximate
Sun 06:06:00 PM 88.3332 -1.3723 66° East  Level FlightAware Approximate
Sun 06:07:00 PM 88.3748 3.2596 70° East  Level FlightAware Approximate
Sun 06:08:00 PM 88.4053 8.1015 75° East  Level FlightAware Approximate
Sun 06:09:00 PM 88.4240 13.0949 80° East  Level FlightAware Approximate
Sun 06:10:00 PM 88.4305 18.1689 85° East  Level FlightAware Approximate
Sun 06:11:00 PM 88.4247 23.2452 90° East  Level FlightAware Approximate
Sun 06:12:00 PM 88.4067 28.2454 95° East  Level FlightAware Approximate
Sun 06:13:00 PM 88.3769 33.0977 100° East  Level FlightAware Approximate
Sun 06:14:00 PM 88.3359 37.7431 105° East  Level FlightAware Approximate
Sun 06:15:00 PM 88.2845 42.1378 109° East  Level FlightAware Approximate
Sun 06:16:00 PM 88.2236 46.2545 114° Southeast  Level FlightAware Approximate
Sun 06:17:00 PM 88.1542 50.0804 118° Southeast  Level FlightAware Approximate
Sun 06:18:00 PM 88.0772 53.6147 122° Southeast  Level FlightAware Approximate
Sun 06:19:00 PM 87.9935 56.8657 125° Southeast  Level FlightAware Approximate
Sun 06:20:00 PM 87.9039 59.8477 129° Southeast  Level FlightAware Approximate
Sun 06:21:00 PM 87.8091 62.5795 132° Southeast  Level FlightAware Approximate
Sun 06:22:00 PM 87.7097 65.0798 134° Southeast  Level FlightAware Approximate
Sun 06:23:00 PM 87.6063 67.3683 137° Southeast  Level FlightAware Approximate
Sun 06:24:00 PM 87.4995 69.4644 139° Southeast  Level FlightAware Approximate
Sun 06:25:00 PM 87.3896 71.3866 141° Southeast  Level FlightAware Approximate
Sun 06:26:00 PM 87.2769 73.1517 143° Southeast  Level FlightAware Approximate
Sun 06:27:00 PM 87.1619 74.7753 145° Southeast  Level FlightAware Approximate
Sun 06:28:00 PM 87.0449 76.2714 146° Southeast  Level FlightAware Approximate
Sun 06:29:00 PM 86.9259 77.6528 148° Southeast  Level FlightAware Approximate
Sun 06:30:00 PM 86.8053 78.9306 149° Southeast  Level FlightAware Approximate
Sun 06:31:00 PM 86.6833 80.1151 151° Southeast  Level FlightAware Approximate
Sun 06:32:00 PM 86.5599 81.2151 152° Southeast  Level FlightAware Approximate
Sun 06:33:00 PM 86.4353 82.2387 153° Southeast  Level FlightAware Approximate
Sun 06:34:00 PM 86.3097 83.1930 154° Southeast  Level FlightAware Approximate
Sun 06:35:00 PM 86.1832 84.0843 155° Southeast  Level FlightAware Approximate
Sun 06:36:00 PM 86.0557 84.9183 156° South  Level FlightAware Approximate
Sun 06:37:00 PM 85.9275 85.7000 157° South  Level FlightAware Approximate
Sun 06:38:00 PM 85.7986 86.4340 157° South  Level FlightAware Approximate
Sun 06:39:00 PM 85.6690 87.1242 158° South  Level FlightAware Approximate
Sun 06:40:00 PM 85.5389 87.7743 159° South  Level FlightAware Approximate
Sun 06:41:00 PM 85.4145 88.3589 159° South  Level FlightAware Approximate
Sun 06:42:00 PM 85.2896 88.9126 160° South  Level FlightAware Approximate
Sun 06:43:00 PM 85.1643 89.4378 161° South  Level FlightAware Approximate
Sun 06:44:00 PM 85.0387 89.9364 161° South  Level FlightAware Approximate
Sun 06:45:00 PM 84.9127 90.4105 162° South  Level FlightAware Approximate
Sun 06:46:00 PM 84.7863 90.8616 162° South  Level FlightAware Approximate
Sun 06:47:00 PM 84.6597 91.2915 162° South  Level FlightAware Approximate
Sun 06:48:00 PM 84.5327 91.7014 163° South  Level FlightAware Approximate
Sun 06:49:00 PM 84.4055 92.0928 163° South  Level FlightAware Approximate
Sun 06:50:00 PM 84.2781 92.4669 164° South  Level FlightAware Approximate
Sun 06:51:00 PM 84.1504 92.8246 164° South  Level FlightAware Approximate
Sun 06:52:00 PM 84.0225 93.1672 164° South  Level FlightAware Approximate
Sun 06:53:00 PM 83.8944 93.4954 165° South  Level FlightAware Approximate
Sun 06:54:00 PM 83.7661 93.8101 165° South  Level FlightAware Approximate
Sun 06:55:00 PM 83.6376 94.1122 165° South  Level FlightAware Approximate
Sun 06:56:00 PM 83.5090 94.4024 166° South  Level FlightAware Approximate
Sun 06:57:00 PM 83.3802 94.6814 166° South  Level FlightAware Approximate
Sun 06:58:00 PM 83.2513 94.9497 166° South  Level FlightAware Approximate
Sun 06:59:00 PM 83.1222 95.2081 167° South  Level FlightAware Approximate
Sun 07:00:00 PM 82.9929 95.4569 167° South  Level FlightAware Approximate
Sun 07:01:00 PM 82.8636 95.6968 167° South  Level FlightAware Approximate
Sun 07:02:00 PM 82.7341 95.9282 167° South  Level FlightAware Approximate
Sun 07:03:00 PM 82.6046 96.1520 168° South  Level FlightAware Approximate
Sun 07:04:00 PM 82.4749 96.3686 168° South  Level FlightAware Approximate
Sun 07:05:00 PM 82.3451 96.5778 168° South  Level FlightAware Approximate
Sun 07:06:00 PM 82.2153 96.7801 168° South  Level FlightAware Approximate
Sun 07:07:00 PM 82.0853 96.9758 168° South  Level FlightAware Approximate
Sun 07:08:00 PM 81.9553 97.1652 168° South  Level FlightAware Approximate
Sun 07:09:00 PM 81.8251 97.3487 169° South  Level FlightAware Approximate
Sun 07:10:00 PM 81.6949 97.5264 169° South  Level FlightAware Approximate
Sun 07:11:00 PM 81.5647 97.6986 169° South  Level FlightAware Approximate
Sun 07:12:00 PM 81.4343 97.8657 169° South  Level FlightAware Approximate
Sun 07:13:00 PM 81.3039 98.0278 169° South  Level FlightAware Approximate
Sun 07:14:00 PM 81.1734 98.1851 170° South  Level FlightAware Approximate
Sun 07:15:00 PM 81.0428 98.3379 170° South  Level FlightAware Approximate
Sun 07:16:00 PM 80.9122 98.4864 170° South  Level FlightAware Approximate
Sun 07:17:00 PM 80.7815 98.6299 170° South  Level FlightAware Approximate
Sun 07:18:00 PM 80.6508 98.7695 170° South  Level FlightAware Approximate
Sun 07:19:00 PM 80.5200 98.9052 170° South  Level FlightAware Approximate
Sun 07:20:00 PM 80.3891 99.0373 170° South  Level FlightAware Approximate
Sun 07:21:00 PM 80.2582 99.1658 171° South  Level FlightAware Approximate
Sun 07:22:00 PM 80.1273 99.2910 171° South  Level FlightAware Approximate
Sun 07:23:00 PM 79.9963 99.4129 171° South  Level FlightAware Approximate
Sun 07:24:00 PM 79.8652 99.5317 171° South  Level FlightAware Approximate
Sun 07:25:00 PM 79.7341 99.6475 171° South  Level FlightAware Approximate
Sun 07:26:00 PM 79.6030 99.7605 171° South  Level FlightAware Approximate
Sun 07:27:00 PM 79.4714 99.8710 171° South  Level FlightAware Approximate
Sun 07:28:00 PM 79.3397 99.9788 171° South  Level FlightAware Approximate
Sun 07:29:00 PM 79.2080 100.0840 171° South  Level FlightAware Approximate
Sun 07:30:00 PM 79.0763 100.1867 172° South  Level FlightAware Approximate
Sun 07:31:00 PM 78.9445 100.2870 172° South  Level FlightAware Approximate
Sun 07:32:00 PM 78.8128 100.3850 172° South  Level FlightAware Approximate
Sun 07:33:00 PM 78.6809 100.4807 172° South  Level FlightAware Approximate
Sun 07:34:00 PM 78.5491 100.5742 172° South  Level FlightAware Approximate
Sun 07:35:00 PM 78.4172 100.6656 172° South  Level FlightAware Approximate
Sun 07:36:00 PM 78.2853 100.7550 172° South  Level FlightAware Approximate
Sun 07:37:00 PM 78.1533 100.8425 172° South  Level FlightAware Approximate
Sun 07:38:00 PM 78.0213 100.9280 172° South  Level FlightAware Approximate
Sun 07:39:00 PM 77.8894 101.0117 172° South  Level FlightAware Approximate
Sun 07:40:00 PM 77.7573 101.0936 173° South  Level FlightAware Approximate
Sun 07:41:00 PM 77.6253 101.1738 173° South  Level FlightAware Approximate
Sun 07:42:00 PM 77.4932 101.2523 173° South  Level FlightAware Approximate
Sun 07:43:00 PM 77.3612 101.3293 173° South  Level FlightAware Approximate
Sun 07:44:00 PM 77.2290 101.4046 173° South  Level FlightAware Approximate
Sun 07:45:00 PM 77.0969 101.4784 173° South  Level FlightAware Approximate
Sun 07:46:00 PM 76.9648 101.5508 173° South  Level FlightAware Approximate
Sun 07:47:00 PM 76.8326 101.6217 173° South  Level FlightAware Approximate
Sun 07:48:00 PM 76.7004 101.6913 173° South  Level FlightAware Approximate
Sun 07:49:00 PM 76.5682 101.7595 173° South  Level FlightAware Approximate
Sun 07:50:00 PM 76.4360 101.8264 173° South  Level FlightAware Approximate
Sun 07:51:00 PM 76.3037 101.8920 173° South  Level FlightAware Approximate
Sun 07:52:00 PM 76.1715 101.9564 173° South  Level FlightAware Approximate
Sun 07:53:00 PM 76.0392 102.0196 173° South  Level FlightAware Approximate
Sun 07:54:00 PM 75.9069 102.0816 173° South  Level FlightAware Approximate
Sun 07:55:00 PM 75.7744 102.1426 174° South  Level FlightAware Approximate
Sun 07:56:00 PM 75.6420 102.2025 174° South  Level FlightAware Approximate
Sun 07:57:00 PM 75.5095 102.2613 174° South  Level FlightAware Approximate
Sun 07:58:00 PM 75.3770 102.3191 174° South  Level FlightAware Approximate
Sun 07:59:00 PM 75.2444 102.3758 174° South  Level FlightAware Approximate
Sun 08:00:00 PM 75.1119 102.4316 174° South  Level FlightAware Approximate
Sun 08:01:00 PM 74.9794 102.4864 174° South  Level FlightAware Approximate
Sun 08:02:00 PM 74.8468 102.5402 174° South  Level FlightAware Approximate
Sun 08:03:00 PM 74.7142 102.5931 174° South  Level FlightAware Approximate
Sun 08:04:00 PM 74.5816 102.6452 174° South  Level FlightAware Approximate
Sun 08:05:00 PM 74.4490 102.6964 174° South  Level FlightAware Approximate
Sun 08:06:00 PM 74.3166 102.7467 174° South  Level FlightAware Approximate
Sun 08:07:00 PM 74.1841 102.7962 174° South  Level FlightAware Approximate
Sun 08:08:00 PM 74.0517 102.8448 174° South  Level FlightAware Approximate
Sun 08:09:00 PM 73.9192 102.8927 174° South  Level FlightAware Approximate
Sun 08:10:00 PM 73.7867 102.9398 174° South  Level FlightAware Approximate
Sun 08:11:00 PM 73.6542 102.9862 174° South  Level FlightAware Approximate
Sun 08:12:00 PM 73.5216 103.0319 174° South  Level FlightAware Approximate
Sun 08:13:00 PM 73.3891 103.0768 174° South  Level FlightAware Approximate
Sun 08:14:00 PM 73.2566 103.1210 175° South  Level FlightAware Approximate
Sun 08:15:00 PM 73.1240 103.1646 175° South  Level FlightAware Approximate
Sun 08:16:00 PM 72.9915 103.2075 175° South  Level FlightAware Approximate
Sun 08:17:00 PM 72.8589 103.2498 175° South  Level FlightAware Approximate
Sun 08:18:00 PM 72.7263 103.2915 175° South  Level FlightAware Approximate
Sun 08:19:00 PM 72.5938 103.3325 175° South  Level FlightAware Approximate
Sun 08:20:00 PM 72.4612 103.3729 175° South  Level FlightAware Approximate
Sun 08:21:00 PM 72.3286 103.4128 175° South  Level FlightAware Approximate
Sun 08:22:00 PM 72.1960 103.4520 175° South  Level FlightAware Approximate
Sun 08:23:00 PM 72.0633 103.4907 175° South  Level FlightAware Approximate
Sun 08:24:00 PM 71.9307 103.5289 175° South  Level FlightAware Approximate
Sun 08:25:00 PM 71.7981 103.5665 175° South  Level FlightAware Approximate
Sun 08:26:00 PM 71.6655 103.6036 175° South  Level FlightAware Approximate
Sun 08:27:00 PM 71.5328 103.6401 175° South  Level FlightAware Approximate
Sun 08:28:00 PM 71.4002 103.6762 175° South  Level FlightAware Approximate
Sun 08:29:00 PM 71.2675 103.7118 175° South  Level FlightAware Approximate
Sun 08:30:00 PM 71.1349 103.7469 175° South  Level FlightAware Approximate
Sun 08:31:00 PM 71.0022 103.7815 175° South  Level FlightAware Approximate
Sun 08:32:00 PM 70.8695 103.8157 175° South  Level FlightAware Approximate
Sun 08:33:00 PM 70.7368 103.8494 175° South  Level FlightAware Approximate
Sun 08:34:00 PM 70.6041 103.8826 175° South  Level FlightAware Approximate
Sun 08:35:00 PM 70.4715 103.9155 175° South  Level FlightAware Approximate
Sun 08:36:00 PM 70.3388 103.9479 175° South  Level FlightAware Approximate
Sun 08:37:00 PM 70.2061 103.9799 175° South  Level FlightAware Approximate
Sun 08:38:00 PM 70.0733 104.0114 175° South  Level FlightAware Approximate
Sun 08:39:00 PM 69.9406 104.0426 175° South  Level FlightAware Approximate
Sun 08:40:00 PM 69.8079 104.0734 175° South  Level FlightAware Approximate
Sun 08:41:00 PM 69.6752 104.1038 175° South  Level FlightAware Approximate
Sun 08:42:00 PM 69.5424 104.1338 175° South  Level FlightAware Approximate
Sun 08:43:00 PM 69.4097 104.1635 176° South  Level FlightAware Approximate
Sun 08:44:00 PM 69.2770 104.1928 176° South  Level FlightAware Approximate
Sun 08:45:00 PM 69.1442 104.2217 176° South  Level FlightAware Approximate
Sun 08:46:00 PM 69.0115 104.2503 176° South  Level FlightAware Approximate
Sun 08:47:00 PM 68.8787 104.2785 176° South  Level FlightAware Approximate
Sun 08:48:00 PM 68.7459 104.3064 176° South  Level FlightAware Approximate
Sun 08:49:00 PM 68.6132 104.3340 176° South  Level FlightAware Approximate
Sun 08:50:00 PM 68.4804 104.3612 176° South  Level FlightAware Approximate
Sun 08:51:00 PM 68.3476 104.3882 176° South  Level FlightAware Approximate
Sun 08:52:00 PM 68.2149 104.4148 176° South  Level FlightAware Approximate
Sun 08:53:00 PM 68.0821 104.4411 176° South  Level FlightAware Approximate
Sun 08:54:00 PM 67.9493 104.4671 176° South  Level FlightAware Approximate
Sun 08:55:00 PM 67.8165 104.4928 176° South  Level FlightAware Approximate
Sun 08:56:00 PM 67.6837 104.5182 176° South  Level FlightAware Approximate
Sun 08:57:00 PM 67.5509 104.5433 176° South  Level FlightAware Approximate
Sun 08:58:00 PM 67.4181 104.5682 176° South  Level FlightAware Approximate
Sun 08:59:00 PM 67.2853 104.5928 176° South  Level FlightAware Approximate
Sun 09:00:00 PM 67.1523 104.6171 176° South  Level FlightAware Approximate
Sun 09:01:00 PM 67.0194 104.6412 176° South  Level FlightAware Approximate
Sun 09:02:00 PM 66.8864 104.6650 176° South  Level FlightAware Approximate
Sun 09:03:00 PM 66.7534 104.6885 176° South  Level FlightAware Approximate
Sun 09:04:00 PM 66.6204 104.7118 176° South  Level FlightAware Approximate
Sun 09:05:00 PM 66.4874 104.7349 176° South  Level FlightAware Approximate
Sun 09:06:00 PM 66.3545 104.7577 176° South  Level FlightAware Approximate
Sun 09:07:00 PM 66.2215 104.7802 176° South  Level FlightAware Approximate
Sun 09:08:00 PM 66.0885 104.8026 176° South  Level FlightAware Approximate
Sun 09:09:00 PM 65.9555 104.8247 176° South  Level FlightAware Approximate
Sun 09:10:00 PM 65.8225 104.8465 176° South  Level FlightAware Approximate
Sun 09:11:00 PM 65.6895 104.8681 176° South  Level FlightAware Approximate
Sun 09:12:00 PM 65.5565 104.8896 176° South  Level FlightAware Approximate
Sun 09:13:00 PM 65.4235 104.9108 176° South  Level FlightAware Approximate
Sun 09:14:00 PM 65.2905 104.9318 176° South  Level FlightAware Approximate
Sun 09:15:00 PM 65.1574 104.9525 176° South  Level FlightAware Approximate
Sun 09:16:00 PM 65.0244 104.9731 176° South  Level FlightAware Approximate
Sun 09:17:00 PM 64.8914 104.9935 176° South  Level FlightAware Approximate
Sun 09:18:00 PM 64.7584 105.0136 176° South  Level FlightAware Approximate
Sun 09:19:00 PM 64.6253 105.0336 176° South  Level FlightAware Approximate
Sun 09:20:00 PM 64.4923 105.0534 176° South  Level FlightAware Approximate
Sun 09:21:00 PM 64.3593 105.0729 176° South  Level FlightAware Approximate
Sun 09:22:00 PM 64.2262 105.0923 176° South  Level FlightAware Approximate
Sun 09:23:00 PM 64.0932 105.1115 176° South  Level FlightAware Approximate
Sun 09:24:00 PM 63.9602 105.1306 176° South  Level FlightAware Approximate
Sun 09:25:00 PM 63.8271 105.1494 176° South  Level FlightAware Approximate
Sun 09:26:00 PM 63.6941 105.1681 176° South  Level FlightAware Approximate
Sun 09:27:00 PM 63.5610 105.1866 176° South  Level FlightAware Approximate
Sun 09:28:00 PM 63.4280 105.2049 176° South  Level FlightAware Approximate
Sun 09:29:00 PM 63.2949 105.2230 176° South  Level FlightAware Approximate
Sun 09:30:00 PM 63.1619 105.2410 177° South  Level FlightAware Approximate
Sun 09:31:00 PM 63.0288 105.2588 177° South  Level FlightAware Approximate
Sun 09:32:00 PM 62.8958 105.2765 177° South  Level FlightAware Approximate
Sun 09:33:00 PM 62.7627 105.2940 177° South  Level FlightAware Approximate
Sun 09:34:00 PM 62.6297 105.3114 177° South  Level FlightAware Approximate
Sun 09:35:00 PM 62.4966 105.3288 177° South  Level FlightAware Approximate
Sun 09:36:00 PM 62.3636 105.3460 177° South  Level FlightAware Approximate
Sun 09:37:00 PM 62.2305 105.3631 177° South  Level FlightAware Approximate
Sun 09:38:00 PM 62.0974 105.3800 177° South  Level FlightAware Approximate
Sun 09:39:00 PM 61.9644 105.3968 177° South  Level FlightAware Approximate
Sun 09:40:00 PM 61.8313 105.4134 177° South  Level FlightAware Approximate
Sun 09:41:00 PM 61.6982 105.4298 177° South  Level FlightAware Approximate
Sun 09:42:00 PM 61.5652 105.4462 177° South  Level FlightAware Approximate
Sun 09:43:00 PM 61.4321 105.4624 177° South  Level FlightAware Approximate
Sun 09:44:00 PM 61.2990 105.4784 177° South  Level FlightAware Approximate
Sun 09:45:00 PM 61.1659 105.4943 177° South  Level FlightAware Approximate
Sun 09:46:00 PM 61.0328 105.5101 177° South  Level FlightAware Approximate
Sun 09:47:00 PM 60.8997 105.5258 177° South  Level FlightAware Approximate
Sun 09:48:00 PM 60.7667 105.5413 177° South  Level FlightAware Approximate
Sun 09:49:00 PM 60.6336 105.5567 177° South  Level FlightAware Approximate
Sun 09:50:00 PM 60.5006 105.5720 177° South  Level FlightAware Approximate
Sun 09:51:00 PM 60.3677 105.5871 177° South  Level FlightAware Approximate
Sun 09:52:00 PM 60.2348 105.6021 177° South  Level FlightAware Approximate
Sun 09:53:00 PM 60.1018 105.6170 177° South  Level FlightAware Approximate
Sun 09:54:00 PM 59.9689 105.6317 177° South  Level FlightAware Approximate
Sun 09:55:00 PM 59.8360 105.6464 177° South  Level FlightAware Approximate
Sun 09:56:00 PM 59.7030 105.6609 177° South  Level FlightAware Approximate
Sun 09:57:00 PM 59.5701 105.6753 177° South  Level FlightAware Approximate
Sun 09:58:00 PM 59.4371 105.6896 177° South  Level FlightAware Approximate
Sun 09:59:00 PM 59.3042 105.7038 177° South  Level FlightAware Approximate
Sun 10:00:00 PM 59.1712 105.7179 177° South  Level FlightAware Approximate
Sun 10:01:00 PM 59.0383 105.7318 177° South  Level FlightAware Approximate
Sun 10:02:00 PM 58.9053 105.7457 177° South  Level FlightAware Approximate
Sun 10:03:00 PM 58.7724 105.7595 177° South  Level FlightAware Approximate
Sun 10:04:00 PM 58.6394 105.7731 177° South  Level FlightAware Approximate
Sun 10:05:00 PM 58.5065 105.7867 177° South  Level FlightAware Approximate
Sun 10:06:00 PM 58.3735 105.8001 177° South  Level FlightAware Approximate
Sun 10:07:00 PM 58.2406 105.8134 177° South  Level FlightAware Approximate
Sun 10:08:00 PM 58.1076 105.8267 177° South  Level FlightAware Approximate
Sun 10:09:00 PM 57.9746 105.8398 177° South  Level FlightAware Approximate
Sun 10:10:00 PM 57.8417 105.8529 177° South  Level FlightAware Approximate
Sun 10:11:00 PM 57.7087 105.8658 177° South  Level FlightAware Approximate
Sun 10:12:00 PM 57.5757 105.8787 177° South  Level FlightAware Approximate
Sun 10:13:00 PM 57.4428 105.8914 177° South  Level FlightAware Approximate
Sun 10:14:00 PM 57.3098 105.9041 177° South  Level FlightAware Approximate
Sun 10:15:00 PM 57.1768 105.9167 177° South  Level FlightAware Approximate
Sun 10:16:00 PM 57.0439 105.9292 177° South  Level FlightAware Approximate
Sun 10:17:00 PM 56.9109 105.9416 177° South  Level FlightAware Approximate
Sun 10:18:00 PM 56.7779 105.9539 177° South  Level FlightAware Approximate
Sun 10:19:00 PM 56.6450 105.9661 177° South  Level FlightAware Approximate
Sun 10:20:00 PM 56.5120 105.9783 177° South  Level FlightAware Approximate
Sun 10:21:00 PM 56.3790 105.9903 177° South  Level FlightAware Approximate
Sun 10:22:00 PM 56.2460 106.0023 177° South  Level FlightAware Approximate
Sun 10:23:00 PM 56.1130 106.0142 177° South  Level FlightAware Approximate
Sun 10:24:00 PM 55.9800 106.0260 177° South  Level FlightAware Approximate
Sun 10:25:00 PM 55.8471 106.0377 177° South  Level FlightAware Approximate
Sun 10:26:00 PM 55.7141 106.0494 177° South  Level FlightAware Approximate
Sun 10:27:00 PM 55.5811 106.0610 177° South  Level FlightAware Approximate
Sun 10:28:00 PM 55.4481 106.0724 177° South  Level FlightAware Approximate
Sun 10:29:00 PM 55.3151 106.0838 177° South  Level FlightAware Approximate
Sun 10:30:00 PM 55.1822 106.0952 177° South  Level FlightAware Approximate
Sun 10:31:00 PM 55.0492 106.1064 177° South  Level FlightAware Approximate
Sun 10:32:00 PM 54.9162 106.1176 177° South  Level FlightAware Approximate
Sun 10:33:00 PM 54.7832 106.1287 177° South  Level FlightAware Approximate
Sun 10:34:00 PM 54.6502 106.1398 177° South  Level FlightAware Approximate
Sun 10:35:00 PM 54.5172 106.1507 177° South  Level FlightAware Approximate
Sun 10:36:00 PM 54.3842 106.1616 177° South  Level FlightAware Approximate
Sun 10:37:00 PM 54.2512 106.1724 177° South  Level FlightAware Approximate
Sun 10:38:00 PM 54.1182 106.1832 177° South  Level FlightAware Approximate
Sun 10:39:00 PM 53.9852 106.1939 177° South  Level FlightAware Approximate
Sun 10:40:00 PM 53.8522 106.2046 177° South  Level FlightAware Approximate
Sun 10:41:00 PM 53.7192 106.2152 177° South  Level FlightAware Approximate
Sun 10:42:00 PM 53.5863 106.2257 177° South  Level FlightAware Approximate
Sun 10:43:00 PM 53.4533 106.2362 177° South  Level FlightAware Approximate
Sun 10:44:00 PM 53.3203 106.2466 177° South  Level FlightAware Approximate
Sun 10:45:00 PM 53.1872 106.2570 177° South  Level FlightAware Approximate
Sun 10:46:00 PM 53.0542 106.2672 177° South  Level FlightAware Approximate
Sun 10:47:00 PM 52.9212 106.2774 177° South  Level FlightAware Approximate
Sun 10:48:00 PM 52.7882 106.2876 177° South  Level FlightAware Approximate
Sun 10:49:00 PM 52.6553 106.2977 177° South  Level FlightAware Approximate
Sun 10:50:00 PM 52.5223 106.3077 177° South  Level FlightAware Approximate
Sun 10:51:00 PM 52.3893 106.3176 177° South  Level FlightAware Approximate
Sun 10:52:00 PM 52.2562 106.3275 177° South  Level FlightAware Approximate
Sun 10:53:00 PM 52.1232 106.3374 177° South  Level FlightAware Approximate
Sun 10:54:00 PM 51.9902 106.3472 177° South  Level FlightAware Approximate
Sun 10:55:00 PM 51.8572 106.3569 177° South  Level FlightAware Approximate
Sun 10:56:00 PM 51.7242 106.3666 177° South  Level FlightAware Approximate
Sun 10:57:00 PM 51.5912 106.3762 177° South  Level FlightAware Approximate
Sun 10:58:00 PM 51.4582 106.3857 177° South  Level FlightAware Approximate
Sun 10:59:00 PM 51.3252 106.3952 177° South  Level FlightAware Approximate
Sun 11:00:00 PM 51.1922 106.4047 177° South  Level FlightAware Approximate
Sun 11:01:00 PM 51.0592 106.4141 177° South  Level FlightAware Approximate
Sun 11:02:00 PM 50.9261 106.4234 177° South  Level FlightAware Approximate
Sun 11:03:00 PM 50.7931 106.4327 177° South  Level FlightAware Approximate
Sun 11:04:00 PM 50.6601 106.4419 177° South  Level FlightAware Approximate
Sun 11:05:00 PM 50.5271 106.4511 177° South  Level FlightAware Approximate
Sun 11:06:00 PM 50.3941 106.4602 177° South  Level FlightAware Approximate
Sun 11:07:00 PM 50.2710 106.5075 138° Southeast  Level FlightAware Approximate
Sun 11:08:00 PM 50.1720 106.6466 138° Southeast  Level FlightAware Approximate
Sun 11:09:00 PM 50.0729 106.7852 138° Southeast  Level FlightAware Approximate
Sun 11:10:00 PM 49.9735 106.9231 138° Southeast  Level FlightAware Approximate
Sun 11:11:00 PM 49.8740 107.0605 138° Southeast  Level FlightAware Approximate
Sun 11:12:00 PM 49.7743 107.1974 138° Southeast  Level FlightAware Approximate
Sun 11:13:00 PM 49.6745 107.3336 139° Southeast  Level FlightAware Approximate
Sun 11:14:00 PM 49.5745 107.4694 139° Southeast  Level FlightAware Approximate
Sun 11:15:00 PM 49.4744 107.6045 139° Southeast  Level FlightAware Approximate
Sun 11:16:00 PM 49.3741 107.7391 139° Southeast  Level FlightAware Approximate
Sun 11:17:00 PM 49.2736 107.8732 139° Southeast  Level FlightAware Approximate
Sun 11:18:00 PM 49.1730 108.0067 139° Southeast  Level FlightAware Approximate
Sun 11:19:00 PM 49.0722 108.1397 139° Southeast  Level FlightAware Approximate
Sun 11:20:00 PM 48.9713 108.2721 139° Southeast  Level FlightAware Approximate
Sun 11:21:00 PM 48.8704 108.4044 139° Southeast  Level FlightAware Approximate
Sun 11:22:00 PM 48.7695 108.5362 139° Southeast  Level FlightAware Approximate
Sun 11:23:00 PM 48.6683 108.6675 139° Southeast  Level FlightAware Approximate
Sun 11:24:00 PM 48.5671 108.7982 139° Southeast  Level FlightAware Approximate
Sun 11:25:00 PM 48.4656 108.9285 140° Southeast  Level FlightAware Approximate
Sun 11:26:00 PM 48.3641 109.0582 140° Southeast  Level FlightAware Approximate
Sun 11:27:00 PM 48.2624 109.1874 140° Southeast  Level FlightAware Approximate
Sun 11:28:00 PM 48.1605 109.3160 140° Southeast  Level FlightAware Approximate
Sun 11:29:00 PM 48.0585 109.4442 140° Southeast  Level FlightAware Approximate
Sun 11:30:00 PM 47.9564 109.5719 140° Southeast  Level FlightAware Approximate
Sun 11:31:00 PM 47.8541 109.6990 140° Southeast  Level FlightAware Approximate
Sun 11:32:00 PM 47.7517 109.8257 140° Southeast  Level FlightAware Approximate
Sun 11:33:00 PM 47.6491 109.9519 140° Southeast  Level FlightAware Approximate
Sun 11:34:00 PM 47.5465 110.0775 140° Southeast  Level FlightAware Approximate
Sun 11:35:00 PM 47.4436 110.2027 141° Southeast  Level FlightAware Approximate
Sun 11:36:00 PM 47.3406 110.3274 141° Southeast  Level FlightAware Approximate
Sun 11:37:00 PM 47.2375 110.4516 141° Southeast  Level FlightAware Approximate
Sun 11:38:00 PM 47.1343 110.5753 141° Southeast  Level FlightAware Approximate
Sun 11:39:00 PM 47.0309 110.6985 141° Southeast  Level FlightAware Approximate
Sun 11:40:00 PM 46.9274 110.8213 141° Southeast  Level FlightAware Approximate
Sun 11:41:00 PM 46.8238 110.9436 141° Southeast  Level FlightAware Approximate
Sun 11:42:00 PM 46.7201 111.0654 141° Southeast  Level FlightAware Approximate
Sun 11:43:00 PM 46.6162 111.1868 141° Southeast  Level FlightAware Approximate
Sun 11:44:00 PM 46.5121 111.3076 141° Southeast  Level FlightAware Approximate
Sun 11:45:00 PM 46.4080 111.4281 141° Southeast  Level FlightAware Approximate
Sun 11:46:00 PM 46.3037 111.5480 142° Southeast  Level FlightAware Approximate
Sun 11:47:00 PM 46.1993 111.6675 142° Southeast  Level FlightAware Approximate
Sun 11:48:00 PM 46.0948 111.7866 142° Southeast  Level FlightAware Approximate
Sun 11:49:00 PM 45.9902 111.9052 142° Southeast  Level FlightAware Approximate
Sun 11:50:00 PM 45.8854 112.0233 142° Southeast  Level FlightAware Approximate
Sun 11:51:00 PM 45.7805 112.1411 142° Southeast  Level FlightAware Approximate
Sun 11:52:00 PM 45.6755 112.2583 142° Southeast  Level FlightAware Approximate
Sun 11:53:00 PM 45.5704 112.3752 142° Southeast  Level FlightAware Approximate
Sun 11:54:00 PM 45.4652 112.4915 142° Southeast  Level FlightAware Approximate
Sun 11:55:00 PM 45.3598 112.6075 142° Southeast  Level FlightAware Approximate
Sun 11:56:00 PM 45.2543 112.7230 142° Southeast  Level FlightAware Approximate
Sun 11:57:00 PM 45.1487 112.8381 142° Southeast  Level FlightAware Approximate
Sun 11:58:00 PM 45.0430 112.9528 143° Southeast  Level FlightAware Approximate
Sun 11:59:00 PM 44.9372 113.0670 143° Southeast  Level FlightAware Approximate
Mon 12:00:00 AM 44.8313 113.1809 143° Southeast  Level FlightAware Approximate
Mon 12:01:00 AM 44.7222 113.2880 149° Southeast  Level FlightAware Approximate
Mon 12:02:00 AM 44.6083 113.3849 149° Southeast  Level FlightAware Approximate
Mon 12:03:00 AM 44.4943 113.4814 149° Southeast  Level FlightAware Approximate
Mon 12:04:00 AM 44.3802 113.5776 149° Southeast  Level FlightAware Approximate
Mon 12:05:00 AM 44.2661 113.6734 149° Southeast  Level FlightAware Approximate
Mon 12:06:00 AM 44.1518 113.7688 149° Southeast  Level FlightAware Approximate
Mon 12:07:00 AM 44.0375 113.8638 149° Southeast  Level FlightAware Approximate
Mon 12:08:00 AM 43.9231 113.9585 149° Southeast  Level FlightAware Approximate
Mon 12:09:00 AM 43.8087 114.0528 149° Southeast  Level FlightAware Approximate
Mon 12:10:00 AM 43.6941 114.1468 149° Southeast  Level FlightAware Approximate
Mon 12:11:00 AM 43.5795 114.2404 149° Southeast  Level FlightAware Approximate
Mon 12:12:00 AM 43.4648 114.3336 149° Southeast  Level FlightAware Approximate
Mon 12:13:00 AM 43.3500 114.4265 150° Southeast  Level FlightAware Approximate
Mon 12:14:00 AM 43.2352 114.5191 150° Southeast  Level FlightAware Approximate
Mon 12:15:00 AM 43.1202 114.6113 150° Southeast  Level FlightAware Approximate
Mon 12:16:00 AM 43.0052 114.7031 150° Southeast  Level FlightAware Approximate
Mon 12:17:00 AM 42.8902 114.7946 150° Southeast  Level FlightAware Approximate
Mon 12:18:00 AM 42.7752 114.8862 150° Southeast  Level FlightAware Approximate
Mon 12:19:00 AM 42.6602 114.9775 150° Southeast  Level FlightAware Approximate
Mon 12:20:00 AM 42.5451 115.0685 150° Southeast  Level FlightAware Approximate
Mon 12:21:00 AM 42.4300 115.1591 150° Southeast  Level FlightAware Approximate
Mon 12:22:00 AM 42.3148 115.2494 150° Southeast  Level FlightAware Approximate
Mon 12:23:00 AM 42.1992 115.3389 150° Southeast  Level FlightAware Approximate
Mon 12:24:00 AM 42.0834 115.4275 150° Southeast  Level FlightAware Approximate
Mon 12:25:00 AM 41.9675 115.5157 150° Southeast  Level FlightAware Approximate
Mon 12:26:00 AM 41.8515 115.6036 151° Southeast  Level FlightAware Approximate
Mon 12:27:00 AM 41.7355 115.6911 151° Southeast  Level FlightAware Approximate
Mon 12:28:00 AM 41.6194 115.7784 151° Southeast  Level FlightAware Approximate
Mon 12:29:00 AM 41.5032 115.8653 151° Southeast  Level FlightAware Approximate
Mon 12:30:00 AM 41.3870 115.9520 151° Southeast  Level FlightAware Approximate
Mon 12:31:00 AM 41.2707 116.0383 151° Southeast  Level FlightAware Approximate
Mon 12:32:00 AM 41.1543 116.1243 151° Southeast  Level FlightAware Approximate
Mon 12:33:00 AM 41.0379 116.2100 151° Southeast  Level FlightAware Approximate
Mon 12:34:00 AM 40.9214 116.2954 151° Southeast  Level FlightAware Approximate
Mon 12:35:00 AM 40.8049 116.3805 151° Southeast  Level FlightAware Approximate
Mon 12:36:00 AM 40.6879 116.4656 151° Southeast  Level FlightAware Approximate
Mon 12:37:00 AM 40.5708 116.5504 151° Southeast  Level FlightAware Approximate
Mon 12:38:00 AM 40.4536 116.6350 151° Southeast  Level FlightAware Approximate
Mon 12:39:00 AM 40.3364 116.7192 151° Southeast  Level FlightAware Approximate
Mon 12:40:00 AM 40.2063 116.7169 187° South  Level FlightAware Approximate
Mon 12:41:00 AM 40.0735 116.6971 186° South  Level FlightAware Approximate
Mon 12:42:00 AM 39.9407 116.6774 186° South  Level FlightAware Approximate
Mon 12:43:00 AM 39.8080 116.6578 186° South  Level FlightAware Approximate
Mon 12:44:00 AM 39.6752 116.6383 186° South  Level FlightAware Approximate
Mon 12:45:00 AM 39.5424 116.6189 186° South  Level FlightAware Approximate
Mon 12:46:00 AM 39.4096 116.5995 186° South  Level FlightAware Approximate
Mon 12:47:00 AM 39.2769 116.5802 186° South  Level FlightAware Approximate
Mon 12:48:00 AM 39.1438 116.5667 180° South  Level FlightAware Approximate
Mon 12:49:00 AM 39.0102 116.5667 180° South  Level FlightAware Approximate
Mon 12:50:00 AM 38.8766 116.5667 180° South  Level FlightAware Approximate
Mon 12:51:00 AM 38.7430 116.5667 180° South  Level FlightAware Approximate
Mon 12:52:00 AM 38.6094 116.5667 180° South  Level FlightAware Approximate
Mon 12:53:00 AM 38.4758 116.5667 180° South  Level FlightAware Approximate
Mon 12:54:00 AM 38.3422 116.5667 180° South  Level FlightAware Approximate
Mon 12:55:00 AM 38.2086 116.5667 180° South  Level FlightAware Approximate
Mon 12:56:00 AM 38.0760 116.5760 163° South  Level FlightAware Approximate
Mon 12:57:00 AM 37.9484 116.6255 163° South  Level FlightAware Approximate
Mon 12:58:00 AM 37.8208 116.6749 163° South  Level FlightAware Approximate
Mon 12:59:00 AM 37.6931 116.7242 163° South  Level FlightAware Approximate
Mon 01:00:00 AM 37.5654 116.7732 163° South  Level FlightAware Approximate
Mon 01:01:00 AM 37.4377 116.8221 163° South  Level FlightAware Approximate
Mon 01:02:00 AM 37.3100 116.8708 163° South  Level FlightAware Approximate
Mon 01:03:00 AM 37.1816 116.9162 166° South  Level FlightAware Approximate
Mon 01:04:00 AM 37.0521 116.9565 166° South  Level FlightAware Approximate
Mon 01:05:00 AM 36.9225 116.9967 166° South  Level FlightAware Approximate
Mon 01:06:00 AM 36.7930 117.0367 166° South  Level FlightAware Approximate
Mon 01:07:00 AM 36.6657 117.0863 161° South  Level FlightAware Approximate
Mon 01:08:00 AM 36.5395 117.1404 161° South  Level FlightAware Approximate
Mon 01:09:00 AM 36.4133 117.1943 161° South  Level FlightAware Approximate
Mon 01:10:00 AM 36.2857 117.2429 163° South  Level FlightAware Approximate
Mon 01:11:00 AM 36.1580 117.2908 163° South  Level FlightAware Approximate
Mon 01:12:00 AM 36.0302 117.3384 163° South  Level FlightAware Approximate
Mon 01:13:00 AM 35.9024 117.3859 163° South  Level FlightAware Approximate
Mon 01:14:00 AM 35.7746 117.4333 163° South  Level FlightAware Approximate
Mon 01:15:00 AM 35.6467 117.4805 163° South  Level FlightAware Approximate
Mon 01:16:00 AM 35.5189 117.5276 163° South  Level FlightAware Approximate
Mon 01:17:00 AM 35.3910 117.5745 163° South  Level FlightAware Approximate
Mon 01:18:00 AM 35.2631 117.6213 163° South  Level FlightAware Approximate
Mon 01:19:00 AM 35.1352 117.6679 163° South  Level FlightAware Approximate
Mon 01:20:00 AM 35.0073 117.7144 163° South  Level FlightAware Approximate
Mon 01:21:00 AM 34.8794 117.7607 163° South  Level FlightAware Approximate
Mon 01:22:00 AM 34.7514 117.8066 164° South  Level FlightAware Approximate
Mon 01:23:00 AM 34.6233 117.8522 164° South  Level FlightAware Approximate
Mon 01:24:00 AM 34.4952 117.8977 164° South  Level FlightAware Approximate
Mon 01:25:00 AM 34.3671 117.9430 164° South  Level FlightAware Approximate
Mon 01:26:00 AM 34.2462 118.0077 148° Southeast  Level FlightAware Approximate
Mon 01:27:00 AM 34.1331 118.0935 148° Southeast  Level FlightAware Approximate
Mon 01:28:00 AM 34.0201 118.1791 148° Southeast  Level FlightAware Approximate
Mon 01:29:00 AM 33.9069 118.2645 148° Southeast  Level FlightAware Approximate
Mon 01:30:00 AM 33.7938 118.3496 148° Southeast  Level FlightAware Approximate
Mon 01:31:00 AM 33.6805 118.4345 148° Southeast  Level FlightAware Approximate
Mon 01:32:00 AM 33.5672 118.5192 148° Southeast  Level FlightAware Approximate
Mon 01:33:00 AM 33.4538 118.6037 148° Southeast  Level FlightAware Approximate
Mon 01:34:00 AM 33.3404 118.6879 148° Southeast  Level FlightAware Approximate
Mon 01:35:00 AM 33.2270 118.7719 148° Southeast  Level FlightAware Approximate
Mon 01:36:00 AM 33.1134 118.8558 148° Southeast  Level FlightAware Approximate
Mon 01:37:00 AM 32.9999 118.9394 148° Southeast  Level FlightAware Approximate
Mon 01:37:23 AM 31.5451 120.4687 148° Southeast 480 552 20,700  Level FlightAware ADS-B (ZSSS / SHA)
Mon 01:37:54 AM 31.5212 120.5502 109° East 480 552 20,700  Level FlightAware ADS-B (ZSSS / SHA)
Mon 01:38:25 AM 31.4995 120.6236 109° East 479 551 20,700 -600 Level FlightAware ADS-B (ZSSS / SHA)
Mon 01:38:54 AM 31.4784 120.6941 109° East 466 536 20,100 -2,000 Descending FlightAware ADS-B (ZSSS / SHA)
Mon 01:39:25 AM 31.4563 120.7668 110° East 464 534 18,700 -2,500 Descending FlightAware ADS-B (ZSSS / SHA)
Mon 01:39:54 AM 31.4364 120.8327 109° East 456 525 17,600 -2,237 Descending FlightAware ADS-B (ZSSS / SHA)
Mon 01:40:24 AM 31.4144 120.9049 110° East 448 516 16,500 -2,100 Descending FlightAware ADS-B (ZSSS / SHA)
Mon 01:40:54 AM 31.3940 120.9720 110° East 441 507 15,500 -1,967 Descending FlightAware ADS-B (ZSSS / SHA)
Mon 01:41:25 AM 31.3733 121.0399 110° East 429 494 14,500 -1,700 Descending FlightAware ADS-B (ZSSS / SHA)
Mon 01:41:54 AM 31.3489 121.1023 115° Southeast 426 490 13,800 -857 Descending FlightAware ADS-B (ZSSS / SHA)
Mon 01:42:14 AM 31.3239 121.1378 130° Southeast 422 486 13,800  Level FlightAware ADS-B (ZSSS / SHA)
Mon 01:42:54 AM 31.2665 121.1974 138° Southeast 416 479 13,800  Level FlightAware ADS-B (ZSSS / SHA)
Mon 01:43:24 AM 31.2234 121.2408 139° Southeast 416 479 13,800 -1,000 Level FlightAware ADS-B (ZSSS / SHA)
Mon 01:43:54 AM 31.1804 121.2838 139° Southeast 409 471 12,800 -1,400 Descending FlightAware ADS-B (ZSSS / SHA)
Mon 01:44:24 AM 31.1384 121.3282 138° Southeast 387 445 12,400 -840 Descending FlightAware ADS-B (ZSSS / SHA)
Mon 01:44:44 AM 31.1180 121.3605 126° Southeast 377 434 12,100 -960 Descending FlightAware ADS-B (ZSSS / SHA)
Mon 01:45:14 AM 31.0964 121.4149 115° Southeast 362 417 11,600 -900 Descending FlightAware ADS-B (ZSSS / SHA)
Mon 01:45:44 AM 31.0778 121.4669 113° Southeast 346 398 11,200 -689 Descending FlightAware ADS-B (ZSSS / SHA)
Mon 01:46:15 AM 31.0598 121.5176 112° Southeast 329 379 10,900 -700 Descending FlightAware ADS-B (ZSSS / SHA)
Mon 01:46:44 AM 31.0427 121.5646 113° Southeast 314 361 10,500 -712 Descending FlightAware ADS-B (ZSSS / SHA)
Mon 01:47:14 AM 31.0264 121.6088 113° Southeast 299 344 10,200 -600 Descending FlightAware ADS-B (ZSSS / SHA)
Mon 01:49:00 AM 31.1428 121.7924 53° Northeast  Level Estimated
Mon 01:50:00 AM 31.1428 121.7924 221° Southwest  Level Estimated
Mon 01:51:00 AM 31.1428 121.7924 221° Southwest  Level Estimated
Mon 01:52:00 AM 31.1428 121.7924 221° Southwest  Level Estimated
Mon 01:53:00 AM 31.1428 121.7924 221° Southwest  Level Estimated
Mon 01:54:00 AM 31.1428 121.7924 221° Southwest  Level Estimated
Mon 01:55:00 AM 31.1428 121.7924 221° Southwest  Level Estimated
Mon 01:56:00 AM 31.1428 121.7924 221° Southwest  Level Estimated
Mon 01:57:00 AM 31.1428 121.7924 221° Southwest  Level Estimated
Mon 01:58:00 AM 31.1428 121.7924 221° Southwest  Level Estimated
Mon 01:59:00 AM 31.1428 121.7924 221° Southwest  Level Estimated
Mon 02:00:00 AM 31.1428 121.7924 221° Southwest  Level Estimated
Mon 02:01:00 AM 31.1428 121.7924 221° Southwest  Level Estimated
Mon 02:02:00 AM 31.1428 121.7924 221° Southwest  Level Estimated
Mon 02:03:00 AM 31.1428 121.7924 221° Southwest  Level Estimated

Login

Don't have an account? Register now (free) for customized features, flight alerts, and more!